Time;durP1;ratioP1;P1;durP2;ratioP2;P2;SDS_P1;SDS_P2;PMS_P1;PMS_P2;Temp;Humidity;BMP_temperature;BMP_pressure;BME280_temperature;BME280_humidity;BME280_pressure;Samples;Min_cycle;Max_cycle;Signal;HPM_P1;HPM_P2
2023/02/13 00:00:02;;;;;;;9.25;5.95;;;;;;;;;;5014837;28;20194;-62
2023/02/13 00:02:28;;;;;;;9.00;5.18;;;;;;;;;;5013750;28;20235;-61
2023/02/13 00:04:54;;;;;;;11.35;6.40;;;;;;;;;;5014055;28;20219;-62
2023/02/13 00:07:19;;;;;;;10.93;5.82;;;;;;;;;;5014154;28;20174;-63
2023/02/13 00:09:45;;;;;;;10.43;5.93;;;;;;;;;;5013788;28;20194;-63
2023/02/13 00:12:11;;;;;;;8.60;5.85;;;;;;;;;;5013725;28;20166;-62
2023/02/13 00:14:38;;;;;;;9.20;5.68;;;;;;;;;;5013694;28;20169;-59
2023/02/13 00:17:04;;;;;;;8.90;5.20;;;;;;;;;;5013607;28;20507;-61
2023/02/13 00:19:30;;;;;;;11.27;6.15;;;;;;;;;;5013849;28;20175;-61
2023/02/13 00:21:56;;;;;;;9.27;5.30;;;;;;;;;;5013515;28;20178;-61
2023/02/13 00:24:22;;;;;;;13.40;5.57;;;;;;;;;;5013778;28;20287;-60
2023/02/13 00:26:48;;;;;;;8.48;5.22;;;;;;;;;;5013329;28;20648;-62
2023/02/13 00:29:14;;;;;;;6.65;4.72;;;;;;;;;;5013669;28;20190;-62
2023/02/13 00:31:40;;;;;;;7.80;5.00;;;;;;;;;;5013583;28;20151;-61
2023/02/13 00:34:08;;;;;;;9.75;5.47;;;;;;;;;;5013754;28;20173;-62
2023/02/13 00:36:34;;;;;;;7.75;5.47;;;;;;;;;;5013048;28;20253;-63
2023/02/13 00:39:00;;;;;;;8.18;5.45;;;;;;;;;;5013342;28;20217;-62
2023/02/13 00:41:26;;;;;;;8.18;4.90;;;;;;;;;;5013042;28;20178;-63
2023/02/13 00:43:51;;;;;;;12.65;6.20;;;;;;;;;;5013241;28;20162;-62
2023/02/13 00:46:18;;;;;;;9.43;5.75;;;;;;;;;;5013234;28;20170;-63
2023/02/13 00:48:44;;;;;;;10.90;5.82;;;;;;;;;;5013106;28;20281;-63
2023/02/13 00:51:10;;;;;;;8.65;5.00;;;;;;;;;;5012979;28;20171;-62
2023/02/13 00:53:37;;;;;;;7.20;4.80;;;;;;;;;;5013170;28;20166;-63
2023/02/13 00:56:04;;;;;;;7.93;5.28;;;;;;;;;;5012862;28;20650;-61
2023/02/13 00:58:30;;;;;;;7.90;5.10;;;;;;;;;;5013069;28;20162;-63
2023/02/13 01:00:56;;;;;;;10.10;4.97;;;;;;;;;;5012892;28;20184;-63
2023/02/13 01:03:22;;;;;;;9.52;5.43;;;;;;;;;;5012667;28;20257;-61
2023/02/13 01:05:48;;;;;;;8.25;5.22;;;;;;;;;;5013088;28;20215;-61
2023/02/13 01:08:15;;;;;;;7.90;4.70;;;;;;;;;;5012493;28;20208;-62
2023/02/13 01:10:42;;;;;;;7.45;4.57;;;;;;;;;;5012702;28;20599;-61
2023/02/13 01:13:08;;;;;;;5.53;3.67;;;;;;;;;;5013066;28;20261;-63
2023/02/13 01:15:35;;;;;;;9.45;4.32;;;;;;;;;;5012908;28;20295;-63
2023/02/13 01:18:01;;;;;;;6.53;3.72;;;;;;;;;;5012528;28;20177;-62
2023/02/13 01:20:28;;;;;;;6.75;3.72;;;;;;;;;;5012535;28;20177;-63
2023/02/13 01:22:54;;;;;;;6.65;4.15;;;;;;;;;;5012732;28;20170;-62
2023/02/13 01:25:21;;;;;;;6.68;4.10;;;;;;;;;;5012898;28;20177;-62
2023/02/13 01:27:47;;;;;;;6.90;4.15;;;;;;;;;;5012740;28;20184;-62
2023/02/13 01:30:13;;;;;;;6.07;3.97;;;;;;;;;;5012655;28;20671;-63
2023/02/13 01:32:40;;;;;;;7.32;4.25;;;;;;;;;;5012650;28;20497;-63
2023/02/13 01:35:06;;;;;;;8.25;4.32;;;;;;;;;;5012497;28;20231;-63
2023/02/13 01:37:33;;;;;;;6.43;4.18;;;;;;;;;;5012623;28;20231;-61
2023/02/13 01:39:59;;;;;;;5.35;3.53;;;;;;;;;;5012634;28;20530;-62
2023/02/13 01:42:26;;;;;;;6.78;3.38;;;;;;;;;;5012491;28;20227;-62
2023/02/13 01:44:56;;;;;;;5.88;3.50;;;;;;;;;;5012274;28;20245;-63
2023/02/13 01:47:28;;;;;;;7.63;3.58;;;;;;;;;;5012390;28;20205;-63
2023/02/13 01:50:03;;;;;;;4.65;3.13;;;;;;;;;;5027010;28;20621;-62
2023/02/13 01:52:29;;;;;;;4.63;2.90;;;;;;;;;;5014233;28;20168;-62
2023/02/13 01:54:55;;;;;;;5.13;3.05;;;;;;;;;;5014486;28;20173;-59
2023/02/13 01:57:23;;;;;;;4.28;2.80;;;;;;;;;;5016303;28;20178;-62
2023/02/13 01:59:54;;;;;;;4.85;2.50;;;;;;;;;;5015984;28;20170;-63
2023/02/13 02:02:21;;;;;;;4.75;2.60;;;;;;;;;;5016488;28;20197;-60
2023/02/13 02:04:48;;;;;;;4.50;2.60;;;;;;;;;;5015696;28;20176;-63
2023/02/13 02:07:17;;;;;;;3.60;2.40;;;;;;;;;;5015745;28;20184;-62
2023/02/13 02:09:44;;;;;;;3.72;2.40;;;;;;;;;;5015706;28;20220;-62
2023/02/13 02:12:17;;;;;;;6.05;2.40;;;;;;;;;;5015411;28;20609;-63
2023/02/13 02:14:43;;;;;;;4.38;2.50;;;;;;;;;;5015609;28;20163;-61
2023/02/13 02:17:09;;;;;;;3.95;2.50;;;;;;;;;;5015659;28;20163;-61
2023/02/13 02:19:44;;;;;;;3.63;2.20;;;;;;;;;;5015972;28;20223;-62
2023/02/13 02:22:28;;;;;;;3.40;2.20;;;;;;;;;;5015694;28;20169;-60
2023/02/13 02:25:13;;;;;;;3.70;2.40;;;;;;;;;;5015839;28;20626;-59
2023/02/13 02:27:48;;;;;;;3.78;1.95;;;;;;;;;;5015557;28;20266;-59
2023/02/13 02:30:23;;;;;;;2.53;2.10;;;;;;;;;;5015127;28;20176;-60
2023/02/13 02:33:02;;;;;;;6.55;2.10;;;;;;;;;;5015373;28;20480;-61
2023/02/13 02:35:37;;;;;;;6.43;2.10;;;;;;;;;;5015404;28;20472;-63
2023/02/13 02:38:13;;;;;;;4.05;2.22;;;;;;;;;;5015256;28;20690;-62
2023/02/13 02:41:11;;;;;;;2.60;1.63;;;;;;;;;;5015263;28;20245;-63
2023/02/13 02:43:47;;;;;;;3.80;1.73;;;;;;;;;;5059117;28;20516;-63
2023/02/13 02:46:17;;;;;;;3.30;1.45;;;;;;;;;;5014874;28;20173;-63
2023/02/13 02:52:01;;;;;;;4.38;2.03;;;;;;;;;;5015159;28;20184;-63
2023/02/13 02:57:22;;;;;;;4.75;1.77;;;;;;;;;;5015028;28;20500;-63
2023/02/13 03:08:09;;;;;;;2.03;1.65;;;;;;;;;;5014385;28;20375;-63
2023/02/13 03:13:37;;;;;;;2.83;1.80;;;;;;;;;;5014940;28;20355;-60
2023/02/13 03:24:36;;;;;;;3.53;2.20;;;;;;;;;;5014572;28;20721;-61
2023/02/13 03:27:05;;;;;;;2.90;1.95;;;;;;;;;;5014641;28;20261;-61
2023/02/13 03:32:45;;;;;;;3.75;2.30;;;;;;;;;;5014676;28;20164;-62
2023/02/13 03:38:32;;;;;;;5.25;2.15;;;;;;;;;;5068081;28;20188;-62
2023/02/13 03:41:18;;;;;;;2.58;1.95;;;;;;;;;;5014418;28;20169;-61
2023/02/13 03:43:47;;;;;;;5.35;2.72;;;;;;;;;;5014095;28;20722;-62
2023/02/13 03:46:14;;;;;;;4.20;2.65;;;;;;;;;;5014588;28;20362;-61
2023/02/13 03:51:40;;;;;;;2.75;2.30;;;;;;;;;;5014649;28;20174;-62
2023/02/13 03:54:12;;;;;;;5.93;3.28;;;;;;;;;;5014049;28;20370;-62
2023/02/13 03:59:36;;;;;;;4.57;2.70;;;;;;;;;;5014173;28;20169;-62
2023/02/13 04:02:15;;;;;;;6.60;3.08;;;;;;;;;;5014075;28;20193;-61
2023/02/13 04:04:46;;;;;;;5.85;3.47;;;;;;;;;;5014038;28;20174;-60
2023/02/13 04:07:28;;;;;;;4.25;3.33;;;;;;;;;;5014177;28;20251;-61
2023/02/13 04:09:55;;;;;;;4.32;3.40;;;;;;;;;;5014050;28;20190;-63
2023/02/13 04:12:23;;;;;;;4.75;3.45;;;;;;;;;;5014716;28;20194;-62
2023/02/13 04:14:54;;;;;;;6.30;3.70;;;;;;;;;;5013879;28;20601;-61
2023/02/13 04:17:27;;;;;;;4.55;3.70;;;;;;;;;;5013721;28;20181;-60
2023/02/13 04:19:53;;;;;;;5.68;3.47;;;;;;;;;;5013783;28;20194;-61
2023/02/13 04:22:18;;;;;;;5.50;3.53;;;;;;;;;;5014305;28;20211;-59
2023/02/13 04:24:45;;;;;;;7.20;3.80;;;;;;;;;;5014534;28;20178;-61
2023/02/13 04:27:13;;;;;;;4.88;3.53;;;;;;;;;;5013950;28;20261;-62
2023/02/13 04:29:39;;;;;;;6.28;3.65;;;;;;;;;;5013277;28;20209;-62
2023/02/13 04:32:05;;;;;;;5.72;3.83;;;;;;;;;;5013717;28;20515;-62
2023/02/13 04:34:31;;;;;;;6.20;3.95;;;;;;;;;;5013534;28;20166;-63
2023/02/13 04:36:57;;;;;;;6.40;4.30;;;;;;;;;;5013331;28;20169;-61
2023/02/13 04:39:23;;;;;;;5.10;3.85;;;;;;;;;;5013655;28;20578;-59
2023/02/13 04:41:49;;;;;;;5.20;3.92;;;;;;;;;;5013361;28;20538;-61
2023/02/13 04:44:15;;;;;;;6.60;4.30;;;;;;;;;;5019368;28;20181;-61
2023/02/13 04:46:41;;;;;;;5.90;4.18;;;;;;;;;;5024553;28;20166;-62
2023/02/13 04:49:07;;;;;;;5.32;3.78;;;;;;;;;;5023282;28;20527;-60
2023/02/13 04:51:33;;;;;;;6.32;4.10;;;;;;;;;;5014446;28;20174;-60
2023/02/13 04:53:59;;;;;;;5.55;4.03;;;;;;;;;;5013789;28;20163;-60
2023/02/13 04:56:25;;;;;;;6.35;4.35;;;;;;;;;;5013486;28;20253;-62
2023/02/13 04:58:51;;;;;;;5.88;4.07;;;;;;;;;;5013350;28;20227;-61
2023/02/13 05:01:17;;;;;;;7.78;4.63;;;;;;;;;;5012921;28;20210;-60
2023/02/13 05:03:43;;;;;;;7.68;4.32;;;;;;;;;;5013614;28;20184;-62
2023/02/13 05:06:09;;;;;;;4.75;3.70;;;;;;;;;;5012926;28;20608;-60
2023/02/13 05:08:35;;;;;;;6.85;4.30;;;;;;;;;;5013000;28;20204;-62
2023/02/13 05:11:01;;;;;;;5.22;4.07;;;;;;;;;;5012909;28;20170;-62
2023/02/13 05:13:27;;;;;;;5.18;3.90;;;;;;;;;;5013152;28;20173;-61
2023/02/13 05:15:53;;;;;;;6.03;4.35;;;;;;;;;;5013063;28;20571;-63
2023/02/13 05:18:19;;;;;;;7.80;4.32;;;;;;;;;;5013950;28;20489;-62
2023/02/13 05:23:21;;;;;;;5.60;4.03;;;;;;;;;;5012858;28;20174;-60
2023/02/13 05:23:31;;;;;;;7.15;4.00;;;;;;;;;;5012726;28;20239;-63
2023/02/13 05:25:57;;;;;;;6.40;4.28;;;;;;;;;;5012001;28;20174;-61
2023/02/13 05:31:07;;;;;;;5.55;4.05;;;;;;;;;;5012156;28;20153;-62
2023/02/13 05:33:33;;;;;;;6.35;3.45;;;;;;;;;;5012845;28;20170;-62
2023/02/13 05:35:59;;;;;;;6.63;3.92;;;;;;;;;;5012794;28;20166;-58
2023/02/13 05:38:25;;;;;;;5.60;4.15;;;;;;;;;;5012776;28;20174;-62
2023/02/13 05:40:51;;;;;;;6.93;3.83;;;;;;;;;;5012363;28;20165;-62
2023/02/13 05:43:17;;;;;;;6.57;4.10;;;;;;;;;;5012845;28;20182;-61
2023/02/13 05:45:43;;;;;;;6.53;4.43;;;;;;;;;;5012426;28;20648;-62
2023/02/13 05:48:09;;;;;;;6.40;3.65;;;;;;;;;;5012598;28;20233;-62
2023/02/13 05:50:35;;;;;;;6.53;3.95;;;;;;;;;;5012323;28;20592;-62
2023/02/13 05:53:01;;;;;;;5.43;3.65;;;;;;;;;;5012388;28;20186;-62
2023/02/13 05:55:27;;;;;;;6.68;4.13;;;;;;;;;;5011863;28;20614;-61
2023/02/13 05:57:56;;;;;;;4.80;3.80;;;;;;;;;;5012181;28;20553;-63
2023/02/13 06:00:22;;;;;;;6.07;3.90;;;;;;;;;;5011992;28;20166;-61
2023/02/13 06:02:50;;;;;;;5.72;3.70;;;;;;;;;;5011915;28;20633;-63
2023/02/13 06:05:16;;;;;;;6.63;4.00;;;;;;;;;;5011968;28;20166;-62
2023/02/13 06:07:42;;;;;;;5.80;3.92;;;;;;;;;;5012353;28;20166;-61
2023/02/13 06:10:08;;;;;;;5.57;3.88;;;;;;;;;;5011798;28;20606;-63
2023/02/13 06:12:33;;;;;;;6.32;3.67;;;;;;;;;;5012267;28;20166;-61
2023/02/13 06:14:59;;;;;;;6.45;3.80;;;;;;;;;;5011928;28;20227;-60
2023/02/13 06:17:25;;;;;;;6.53;3.45;;;;;;;;;;5011987;28;20271;-60
2023/02/13 06:19:51;;;;;;;5.15;3.92;;;;;;;;;;5012326;28;20201;-61
2023/02/13 06:22:17;;;;;;;6.22;3.85;;;;;;;;;;5011789;28;20167;-61
2023/02/13 06:24:43;;;;;;;5.20;3.45;;;;;;;;;;5011578;28;20174;-61
2023/02/13 06:27:09;;;;;;;5.60;3.40;;;;;;;;;;5011897;28;20178;-60
2023/02/13 06:29:35;;;;;;;5.95;3.50;;;;;;;;;;5011934;28;20205;-61
2023/02/13 06:32:01;;;;;;;5.82;3.58;;;;;;;;;;5011853;28;20258;-60
2023/02/13 06:34:27;;;;;;;7.43;3.78;;;;;;;;;;5012237;28;20475;-62
2023/02/13 06:36:53;;;;;;;5.80;4.10;;;;;;;;;;5011811;28;20170;-62
2023/02/13 06:39:19;;;;;;;5.88;3.70;;;;;;;;;;5011899;28;20247;-63
2023/02/13 06:41:45;;;;;;;4.30;3.30;;;;;;;;;;5014453;28;20481;-63
2023/02/13 06:44:11;;;;;;;4.60;3.53;;;;;;;;;;5015033;28;20570;-62
2023/02/13 06:46:36;;;;;;;5.82;3.20;;;;;;;;;;5015179;28;20509;-63
2023/02/13 06:49:02;;;;;;;4.50;3.40;;;;;;;;;;5015058;28;20514;-63
2023/02/13 06:51:28;;;;;;;5.85;3.78;;;;;;;;;;5014821;28;20516;-63
2023/02/13 06:53:55;;;;;;;6.10;3.72;;;;;;;;;;5015230;28;20178;-62
2023/02/13 06:56:21;;;;;;;7.18;4.88;;;;;;;;;;5014928;28;20613;-61
2023/02/13 06:58:47;;;;;;;5.40;3.88;;;;;;;;;;5014905;28;20631;-63
2023/02/13 07:01:13;;;;;;;4.75;3.60;;;;;;;;;;5014366;28;20178;-63
2023/02/13 07:03:38;;;;;;;5.93;4.00;;;;;;;;;;5014787;28;20201;-63
2023/02/13 07:06:05;;;;;;;5.53;3.40;;;;;;;;;;5014991;28;20593;-63
2023/02/13 07:08:30;;;;;;;5.82;3.55;;;;;;;;;;5014545;28;20193;-62
2023/02/13 07:10:56;;;;;;;4.85;3.75;;;;;;;;;;5014405;28;20176;-62
2023/02/13 07:13:22;;;;;;;5.55;4.05;;;;;;;;;;5014312;28;20185;-61
2023/02/13 07:15:48;;;;;;;5.28;3.92;;;;;;;;;;5014435;28;20248;-63
2023/02/13 07:18:14;;;;;;;6.55;4.20;;;;;;;;;;5014402;28;20223;-62
2023/02/13 07:20:40;;;;;;;5.55;4.00;;;;;;;;;;5014314;28;20214;-61
2023/02/13 07:23:06;;;;;;;4.97;3.60;;;;;;;;;;5014627;28;20166;-62
2023/02/13 07:25:33;;;;;;;6.07;4.38;;;;;;;;;;5014522;28;20174;-62
2023/02/13 07:28:02;;;;;;;7.80;4.32;;;;;;;;;;5014473;28;20275;-62
2023/02/13 07:30:29;;;;;;;6.28;4.40;;;;;;;;;;5014595;28;20177;-61
2023/02/13 07:32:57;;;;;;;6.57;4.25;;;;;;;;;;5014410;28;20182;-63
2023/02/13 07:35:23;;;;;;;6.35;4.47;;;;;;;;;;5014523;28;20178;-63
2023/02/13 07:37:49;;;;;;;7.05;4.28;;;;;;;;;;5023234;28;20177;-62
2023/02/13 07:40:15;;;;;;;7.32;4.72;;;;;;;;;;5032444;28;20190;-62
2023/02/13 07:42:41;;;;;;;5.43;4.13;;;;;;;;;;5026203;28;20167;-63
2023/02/13 07:45:07;;;;;;;8.38;4.47;;;;;;;;;;5015272;28;20260;-63
2023/02/13 07:47:34;;;;;;;6.25;4.25;;;;;;;;;;5014750;28;20158;-62
2023/02/13 07:50:00;;;;;;;6.40;4.65;;;;;;;;;;5014317;28;20209;-62
2023/02/13 07:52:26;;;;;;;6.80;4.53;;;;;;;;;;5013305;28;20166;-61
2023/02/13 07:54:52;;;;;;;7.15;4.30;;;;;;;;;;5014533;28;20602;-61
2023/02/13 07:57:18;;;;;;;7.22;4.50;;;;;;;;;;5013972;28;20309;-62
2023/02/13 07:59:44;;;;;;;5.82;4.43;;;;;;;;;;5014462;28;20206;-61
2023/02/13 08:02:12;;;;;;;7.63;4.85;;;;;;;;;;5013520;28;20221;-62
2023/02/13 08:04:39;;;;;;;8.30;4.88;;;;;;;;;;5013646;28;20167;-63
2023/02/13 08:07:04;;;;;;;6.40;4.75;;;;;;;;;;5014088;28;20174;-63
2023/02/13 08:12:15;;;;;;;6.30;4.65;;;;;;;;;;5013839;28;20162;-62
2023/02/13 08:14:41;;;;;;;7.22;4.75;;;;;;;;;;5013603;28;20159;-62
2023/02/13 08:17:09;;;;;;;8.10;4.80;;;;;;;;;;5013699;28;20498;-63
2023/02/13 08:19:35;;;;;;;9.15;5.43;;;;;;;;;;5013457;28;20174;-62
2023/02/13 08:22:01;;;;;;;7.65;5.15;;;;;;;;;;5013406;28;20319;-62
2023/02/13 08:24:27;;;;;;;6.72;4.60;;;;;;;;;;5014067;28;20170;-62
2023/02/13 08:26:52;;;;;;;7.32;4.78;;;;;;;;;;5013432;28;20209;-63
2023/02/13 08:29:18;;;;;;;7.35;4.97;;;;;;;;;;5013352;28;20212;-63
2023/02/13 08:31:44;;;;;;;8.50;5.60;;;;;;;;;;5013469;28;20159;-62
2023/02/13 08:34:10;;;;;;;8.52;5.35;;;;;;;;;;5013609;28;20352;-62
2023/02/13 08:36:36;;;;;;;7.40;4.85;;;;;;;;;;5013444;28;20228;-63
2023/02/13 08:39:02;;;;;;;8.15;4.82;;;;;;;;;;5013378;28;20166;-62
2023/02/13 08:41:28;;;;;;;8.82;5.32;;;;;;;;;;5013052;28;20173;-63
2023/02/13 08:43:54;;;;;;;6.85;5.47;;;;;;;;;;5013145;28;20265;-61
2023/02/13 08:46:20;;;;;;;7.60;4.82;;;;;;;;;;5012898;28;20177;-63
2023/02/13 08:48:46;;;;;;;7.88;4.90;;;;;;;;;;5013025;28;20210;-63
2023/02/13 08:51:13;;;;;;;7.45;5.25;;;;;;;;;;5012946;28;20479;-63
2023/02/13 08:53:39;;;;;;;8.10;5.70;;;;;;;;;;5013227;28;20288;-63
2023/02/13 08:56:06;;;;;;;8.50;5.57;;;;;;;;;;5012835;28;20174;-62
2023/02/13 08:58:32;;;;;;;8.38;5.72;;;;;;;;;;5012985;28;20185;-63
2023/02/13 09:00:58;;;;;;;9.88;6.00;;;;;;;;;;5012932;28;20179;-63
2023/02/13 09:03:24;;;;;;;7.22;5.40;;;;;;;;;;5012751;28;20446;-63
2023/02/13 09:05:50;;;;;;;8.07;5.43;;;;;;;;;;5012682;28;20170;-62
2023/02/13 09:08:16;;;;;;;7.00;5.35;;;;;;;;;;5012758;28;20212;-62
2023/02/13 09:10:42;;;;;;;8.00;6.00;;;;;;;;;;5012822;28;20162;-62
2023/02/13 09:13:08;;;;;;;8.30;5.53;;;;;;;;;;5012432;28;20623;-63
2023/02/13 09:15:38;;;;;;;8.38;6.35;;;;;;;;;;5012687;28;20167;-63
2023/02/13 09:18:04;;;;;;;8.55;6.15;;;;;;;;;;5012752;28;20227;-62
2023/02/13 09:20:30;;;;;;;11.50;5.72;;;;;;;;;;5012934;28;20529;-62
2023/02/13 09:22:56;;;;;;;10.07;6.45;;;;;;;;;;5012500;28;20167;-62
2023/02/13 09:25:21;;;;;;;8.65;5.75;;;;;;;;;;5012463;28;20166;-62
2023/02/13 09:27:47;;;;;;;7.70;5.28;;;;;;;;;;5012809;28;20181;-62
2023/02/13 09:30:21;;;;;;;9.38;6.00;;;;;;;;;;5013046;28;20363;-63
2023/02/13 09:32:47;;;;;;;9.20;5.78;;;;;;;;;;5012718;28;20155;-61
2023/02/13 09:35:13;;;;;;;9.65;6.35;;;;;;;;;;5013462;28;20174;-62
2023/02/13 09:37:40;;;;;;;7.90;5.68;;;;;;;;;;5013431;28;20170;-62
2023/02/13 09:40:07;;;;;;;8.98;6.53;;;;;;;;;;5013563;28;20576;-62
2023/02/13 09:42:35;;;;;;;8.52;5.85;;;;;;;;;;5013641;28;20501;-62
2023/02/13 09:45:03;;;;;;;7.72;5.57;;;;;;;;;;5013339;28;20550;-61
2023/02/13 09:47:36;;;;;;;8.18;5.97;;;;;;;;;;5013410;28;20174;-63
2023/02/13 09:50:11;;;;;;;9.38;5.15;;;;;;;;;;5013058;28;20271;-63
2023/02/13 09:52:38;;;;;;;10.07;6.03;;;;;;;;;;5013544;28;20181;-63
2023/02/13 09:55:14;;;;;;;8.45;5.72;;;;;;;;;;5013573;28;20178;-62
2023/02/13 09:57:43;;;;;;;9.80;6.55;;;;;;;;;;5014073;28;20208;-62
2023/02/13 10:00:18;;;;;;;7.93;6.03;;;;;;;;;;5013641;28;20189;-62
2023/02/13 10:03:00;;;;;;;8.00;5.85;;;;;;;;;;5013239;28;20245;-61
2023/02/13 10:05:25;;;;;;;9.15;6.20;;;;;;;;;;5013352;28;20174;-61
2023/02/13 10:07:59;;;;;;;9.18;6.18;;;;;;;;;;5013121;28;20223;-62
2023/02/13 10:10:31;;;;;;;10.20;6.10;;;;;;;;;;5013205;28;20529;-62
2023/02/13 10:12:56;;;;;;;9.05;6.15;;;;;;;;;;5013504;28;20163;-61
2023/02/13 10:15:28;;;;;;;8.10;5.82;;;;;;;;;;5013268;28;20544;-62
2023/02/13 10:17:59;;;;;;;11.13;6.70;;;;;;;;;;5016147;28;20159;-62
2023/02/13 10:20:37;;;;;;;7.43;5.72;;;;;;;;;;5016902;28;20170;-62
2023/02/13 10:23:22;;;;;;;7.90;5.90;;;;;;;;;;5020425;28;20170;-62
2023/02/13 10:25:51;;;;;;;8.02;5.80;;;;;;;;;;5019077;28;20249;-62
2023/02/13 10:28:21;;;;;;;7.60;5.63;;;;;;;;;;5016248;28;20601;-63
2023/02/13 10:30:52;;;;;;;9.05;6.85;;;;;;;;;;5015033;28;20407;-61
2023/02/13 10:33:21;;;;;;;9.05;5.78;;;;;;;;;;5015065;28;20170;-64
2023/02/13 10:35:47;;;;;;;6.97;5.35;;;;;;;;;;5015257;28;20201;-63
2023/02/13 10:38:15;;;;;;;7.90;5.03;;;;;;;;;;5015458;28;20337;-63
2023/02/13 10:40:47;;;;;;;7.65;5.10;;;;;;;;;;5015221;28;20181;-61
2023/02/13 10:43:17;;;;;;;7.85;5.32;;;;;;;;;;5015091;28;20159;-60
2023/02/13 10:45:46;;;;;;;5.88;4.35;;;;;;;;;;5014938;28;20173;-62
2023/02/13 10:48:12;;;;;;;9.13;4.93;;;;;;;;;;5015112;28;20563;-63
2023/02/13 10:50:38;;;;;;;9.82;5.32;;;;;;;;;;5015217;28;20162;-61
2023/02/13 10:53:13;;;;;;;10.25;5.72;;;;;;;;;;5014814;28;20593;-63
2023/02/13 10:55:39;;;;;;;7.43;4.40;;;;;;;;;;5015052;28;20166;-63
2023/02/13 10:58:08;;;;;;;7.82;4.63;;;;;;;;;;5015074;28;20257;-63
2023/02/13 11:00:43;;;;;;;6.68;4.72;;;;;;;;;;5014887;28;20163;-63
2023/02/13 11:03:17;;;;;;;7.60;4.55;;;;;;;;;;5014538;28;20594;-63
2023/02/13 11:05:43;;;;;;;8.60;5.03;;;;;;;;;;5014551;28;20692;-60
2023/02/13 11:08:23;;;;;;;8.70;5.13;;;;;;;;;;5014654;28;20215;-62
2023/02/13 11:10:49;;;;;;;6.50;4.80;;;;;;;;;;5014646;28;20158;-62
2023/02/13 11:13:20;;;;;;;7.15;5.07;;;;;;;;;;5014902;28;20170;-63
2023/02/13 11:16:05;;;;;;;5.38;4.03;;;;;;;;;;5014741;28;20166;-63
2023/02/13 11:18:36;;;;;;;5.30;3.58;;;;;;;;;;5014553;28;20185;-62
2023/02/13 11:21:06;;;;;;;7.70;3.72;;;;;;;;;;5014674;28;20181;-63
2023/02/13 11:23:35;;;;;;;6.72;4.05;;;;;;;;;;5014485;28;20170;-63
2023/02/13 11:26:02;;;;;;;3.83;3.20;;;;;;;;;;5014185;28;20171;-63
2023/02/13 11:28:33;;;;;;;5.28;3.45;;;;;;;;;;5013393;28;20254;-61
2023/02/13 11:31:10;;;;;;;3.67;2.70;;;;;;;;;;5014700;28;20175;-61
2023/02/13 11:33:36;;;;;;;5.13;3.47;;;;;;;;;;5014328;28;20181;-62
2023/02/13 11:36:07;;;;;;;6.53;3.22;;;;;;;;;;5014191;28;20193;-64
2023/02/13 11:38:33;;;;;;;4.93;3.25;;;;;;;;;;5014389;28;20174;-61
2023/02/13 11:41:06;;;;;;;5.85;3.53;;;;;;;;;;5014681;28;20615;-63
2023/02/13 11:43:36;;;;;;;5.00;3.38;;;;;;;;;;5014418;28;20202;-63
2023/02/13 11:46:02;;;;;;;5.00;3.30;;;;;;;;;;5014237;28;20635;-63
2023/02/13 11:48:28;;;;;;;4.90;3.00;;;;;;;;;;5013848;28;20637;-61
2023/02/13 11:50:57;;;;;;;5.63;2.65;;;;;;;;;;5013780;28;20198;-61
2023/02/13 11:53:25;;;;;;;5.00;2.60;;;;;;;;;;5014039;28;20536;-62
2023/02/13 11:56:05;;;;;;;2.97;2.33;;;;;;;;;;5013950;28;20170;-62
2023/02/13 11:58:31;;;;;;;4.00;2.60;;;;;;;;;;5014250;28;20486;-61
2023/02/13 12:01:17;;;;;;;6.50;2.60;;;;;;;;;;5013813;28;20173;-62
2023/02/13 12:03:43;;;;;;;5.50;3.03;;;;;;;;;;5014129;28;20162;-61
2023/02/13 12:06:14;;;;;;;4.32;2.88;;;;;;;;;;5013589;28;20170;-62
2023/02/13 12:08:41;;;;;;;4.07;2.60;;;;;;;;;;5013995;28;20222;-63
2023/02/13 12:11:13;;;;;;;5.95;2.88;;;;;;;;;;5013767;28;20167;-63
2023/02/13 12:13:39;;;;;;;6.22;2.85;;;;;;;;;;5013693;28;20174;-62
2023/02/13 12:16:32;;;;;;;4.65;2.75;;;;;;;;;;5013762;28;20495;-63
2023/02/13 12:19:01;;;;;;;4.10;2.38;;;;;;;;;;5043712;28;20266;-63
2023/02/13 12:21:27;;;;;;;6.65;2.85;;;;;;;;;;5013899;28;20170;-60
2023/02/13 12:24:12;;;;;;;3.63;2.42;;;;;;;;;;5013751;28;20162;-60
2023/02/13 12:26:45;;;;;;;4.95;2.97;;;;;;;;;;5013627;28;20227;-62
2023/02/13 12:29:20;;;;;;;3.45;2.75;;;;;;;;;;5013466;28;20200;-62
2023/02/13 12:32:01;;;;;;;5.57;2.72;;;;;;;;;;5013670;28;20151;-60
2023/02/13 12:34:46;;;;;;;4.35;2.45;;;;;;;;;;5013518;28;20162;-62
2023/02/13 12:37:24;;;;;;;6.18;3.03;;;;;;;;;;5013491;28;20170;-63
2023/02/13 12:40:14;;;;;;;4.25;2.42;;;;;;;;;;5013535;28;20627;-62
2023/02/13 12:42:59;;;;;;;3.63;2.70;;;;;;;;;;5013575;28;20253;-63
2023/02/13 12:45:31;;;;;;;4.15;2.47;;;;;;;;;;5013096;28;20599;-62
2023/02/13 12:48:04;;;;;;;3.00;2.40;;;;;;;;;;5013325;28;20189;-62
2023/02/13 12:50:50;;;;;;;4.75;2.63;;;;;;;;;;5013424;28;20178;-60
2023/02/13 12:53:24;;;;;;;3.92;2.80;;;;;;;;;;5026283;28;20225;-62
2023/02/13 12:55:57;;;;;;;5.05;2.83;;;;;;;;;;5013072;28;20504;-63
2023/02/13 12:58:42;;;;;;;4.53;2.25;;;;;;;;;;5013271;28;20159;-62
2023/02/13 13:01:23;;;;;;;4.75;2.67;;;;;;;;;;5013015;28;20190;-61
2023/02/13 13:03:49;;;;;;;4.40;2.40;;;;;;;;;;5014114;28;20170;-61
2023/02/13 13:06:29;;;;;;;5.28;2.47;;;;;;;;;;5024197;28;20167;-61
2023/02/13 13:09:07;;;;;;;2.65;2.38;;;;;;;;;;5026031;28;20186;-62
2023/02/13 13:11:33;;;;;;;3.85;2.42;;;;;;;;;;5016434;28;20226;-62
2023/02/13 13:14:02;;;;;;;4.40;2.33;;;;;;;;;;5015345;28;20249;-61
2023/02/13 13:16:28;;;;;;;3.97;2.40;;;;;;;;;;5013653;28;20223;-62
2023/02/13 13:18:54;;;;;;;6.00;2.55;;;;;;;;;;5012677;28;20502;-63
2023/02/13 13:21:29;;;;;;;3.53;2.38;;;;;;;;;;5013216;28;20186;-62
2023/02/13 13:24:07;;;;;;;4.40;2.90;;;;;;;;;;5012771;28;20166;-62
2023/02/13 13:26:48;;;;;;;4.75;2.70;;;;;;;;;;5012732;28;20167;-60
2023/02/13 13:29:20;;;;;;;5.50;2.92;;;;;;;;;;5012678;28;20208;-62
2023/02/13 13:31:50;;;;;;;5.18;3.00;;;;;;;;;;5012637;28;20158;-62
2023/02/13 13:34:20;;;;;;;4.15;2.60;;;;;;;;;;5012578;28;20174;-62
2023/02/13 13:36:49;;;;;;;4.07;2.88;;;;;;;;;;5012225;28;20595;-63
2023/02/13 13:39:25;;;;;;;4.95;3.00;;;;;;;;;;5012913;28;20163;-61
2023/02/13 13:41:54;;;;;;;6.68;3.08;;;;;;;;;;5012575;28;20226;-62
2023/02/13 13:44:39;;;;;;;3.83;2.45;;;;;;;;;;5012544;28;20178;-62
2023/02/13 13:47:24;;;;;;;4.70;2.45;;;;;;;;;;5012039;28;20162;-62
2023/02/13 13:49:51;;;;;;;7.40;2.90;;;;;;;;;;5012152;28;20527;-62
2023/02/13 13:52:25;;;;;;;4.22;2.13;;;;;;;;;;5015591;28;20242;-62
2023/02/13 13:54:51;;;;;;;4.82;2.28;;;;;;;;;;5015797;28;20265;-63
2023/02/13 13:57:40;;;;;;;4.18;2.28;;;;;;;;;;5015471;28;20603;-63
2023/02/13 14:00:06;;;;;;;2.35;1.80;;;;;;;;;;5025492;28;20178;-63
2023/02/13 14:02:38;;;;;;;4.13;2.33;;;;;;;;;;5015482;28;20262;-62
2023/02/13 14:05:24;;;;;;;3.33;2.15;;;;;;;;;;5015896;28;20269;-61
2023/02/13 14:07:52;;;;;;;2.97;2.10;;;;;;;;;;5015878;28;20230;-61
2023/02/13 14:10:22;;;;;;;4.97;2.42;;;;;;;;;;5015402;28;20193;-60
2023/02/13 14:12:49;;;;;;;3.17;2.15;;;;;;;;;;5015589;28;20494;-61
2023/02/13 14:15:33;;;;;;;3.70;2.38;;;;;;;;;;5015893;28;20499;-61
2023/02/13 14:18:00;;;;;;;3.67;2.65;;;;;;;;;;5015760;28;20201;-60
2023/02/13 14:20:37;;;;;;;3.80;2.65;;;;;;;;;;5015747;28;20170;-62
2023/02/13 14:23:12;;;;;;;4.53;2.40;;;;;;;;;;5015622;28;20174;-60
2023/02/13 14:25:38;;;;;;;6.28;2.63;;;;;;;;;;5015459;28;20250;-62
2023/02/13 14:28:05;;;;;;;5.00;2.13;;;;;;;;;;5013995;28;20605;-61
2023/02/13 14:30:33;;;;;;;4.25;2.75;;;;;;;;;;5015272;28;20216;-63
2023/02/13 14:33:06;;;;;;;6.40;2.42;;;;;;;;;;5015343;28;20238;-61
2023/02/13 14:35:36;;;;;;;3.38;2.55;;;;;;;;;;5015218;28;20689;-62
2023/02/13 14:38:04;;;;;;;4.00;2.60;;;;;;;;;;5015206;28;20177;-62
2023/02/13 14:40:48;;;;;;;3.40;2.58;;;;;;;;;;5015219;28;20178;-61
2023/02/13 14:43:34;;;;;;;5.75;2.95;;;;;;;;;;5015150;28;20176;-58
2023/02/13 14:46:07;;;;;;;5.07;2.30;;;;;;;;;;5014861;28;20219;-62
2023/02/13 14:48:36;;;;;;;3.53;2.60;;;;;;;;;;5014752;28;20683;-62
2023/02/13 14:51:03;;;;;;;3.58;2.47;;;;;;;;;;5015133;28;20174;-61
2023/02/13 14:53:46;;;;;;;3.53;2.80;;;;;;;;;;5015337;28;20225;-61
2023/02/13 14:56:13;;;;;;;5.38;2.60;;;;;;;;;;5014774;28;20249;-62
2023/02/13 14:58:46;;;;;;;3.63;2.28;;;;;;;;;;5014589;28;20171;-62
2023/02/13 15:01:30;;;;;;;3.40;2.70;;;;;;;;;;5014478;28;20202;-62
2023/02/13 15:04:19;;;;;;;5.25;3.20;;;;;;;;;;5014818;28;20174;-62
2023/02/13 15:06:46;;;;;;;4.10;2.85;;;;;;;;;;5024871;28;20617;-61
2023/02/13 15:09:19;;;;;;;5.18;3.30;;;;;;;;;;5014730;28;20197;-63
2023/02/13 15:11:46;;;;;;;4.88;2.63;;;;;;;;;;5014093;28;20573;-62
2023/02/13 15:14:24;;;;;;;5.00;2.90;;;;;;;;;;5014643;28;20177;-62
2023/02/13 15:16:58;;;;;;;3.72;3.17;;;;;;;;;;5014582;28;20176;-63
2023/02/13 15:19:25;;;;;;;4.38;2.75;;;;;;;;;;5014645;28;20493;-62
2023/02/13 15:21:52;;;;;;;4.07;2.85;;;;;;;;;;5014113;28;20181;-63
2023/02/13 15:24:21;;;;;;;7.00;2.67;;;;;;;;;;5014252;28;20665;-62
2023/02/13 15:26:52;;;;;;;6.25;2.83;;;;;;;;;;5014384;28;20175;-61
2023/02/13 15:29:19;;;;;;;5.00;2.72;;;;;;;;;;5014289;28;20202;-62
2023/02/13 15:31:45;;;;;;;4.43;2.55;;;;;;;;;;5014366;28;20166;-62
2023/02/13 15:34:24;;;;;;;3.97;2.80;;;;;;;;;;5014868;28;20487;-62
2023/02/13 15:36:50;;;;;;;4.78;3.05;;;;;;;;;;5014878;28;20166;-62
2023/02/13 15:39:17;;;;;;;4.07;3.20;;;;;;;;;;5014259;28;20178;-62